createdAt,value
2023-11-15T00:00:57.919Z,10.00
2023-11-15T00:02:01.099Z,10.00
2023-11-15T00:03:03.368Z,10.17
2023-11-15T00:04:07.989Z,11.33
2023-11-15T00:05:10.422Z,12.17
2023-11-15T00:06:13.376Z,13.00
2023-11-15T00:07:16.519Z,13.50
2023-11-15T00:08:18.717Z,14.00
2023-11-15T00:09:21.953Z,14.00
2023-11-15T00:10:24.170Z,14.00
2023-11-15T00:11:26.485Z,13.00
2023-11-15T00:12:32.754Z,13.00
2023-11-15T00:13:35.088Z,13.00
2023-11-15T00:14:38.762Z,13.17
2023-11-15T00:15:41.108Z,14.00
2023-11-15T00:16:44.270Z,14.83
2023-11-15T00:17:46.737Z,16.67
2023-11-15T00:18:50.005Z,18.50
2023-11-15T00:19:52.969Z,19.00
2023-11-15T00:20:56.185Z,19.83
2023-11-15T00:21:58.836Z,20.50
2023-11-15T00:23:02.760Z,21.67
2023-11-15T00:24:06.002Z,22.17
2023-11-15T00:25:10.087Z,23.00
2023-11-15T00:26:12.314Z,23.33
2023-11-15T00:27:15.537Z,25.00
2023-11-15T00:28:18.995Z,27.50
2023-11-15T00:29:22.822Z,29.50
2023-11-15T00:30:25.034Z,30.17
2023-11-15T00:31:28.107Z,31.00
2023-11-15T00:32:30.753Z,32.00
2023-11-15T00:33:34.058Z,34.33
2023-11-15T00:34:36.210Z,37.50
2023-11-15T00:35:39.420Z,40.17
2023-11-15T00:36:45.828Z,41.00
2023-11-15T00:37:48.512Z,41.00
2023-11-15T00:38:51.986Z,41.83
2023-11-15T00:39:54.913Z,43.00
2023-11-15T00:40:59.218Z,43.83
2023-11-15T00:42:01.943Z,47.50
2023-11-15T00:43:05.305Z,50.50
2023-11-15T00:44:08.878Z,50.00
2023-11-15T00:45:13.337Z,50.33
2023-11-15T00:46:16.786Z,51.33
2023-11-15T00:47:19.990Z,52.50
2023-11-15T00:48:22.271Z,54.67
2023-11-15T00:49:25.569Z,59.50
2023-11-15T00:50:27.870Z,62.83
2023-11-15T00:51:31.312Z,61.67
2023-11-15T00:52:34.382Z,60.33
2023-11-15T00:53:37.981Z,59.17
2023-11-15T00:54:40.136Z,58.17
2023-11-15T00:55:43.766Z,58.00
2023-11-15T00:56:46.016Z,57.00
2023-11-15T00:57:49.202Z,55.83
2023-11-15T00:58:51.393Z,50.50
2023-11-15T00:59:55.029Z,42.17
2023-11-15T01:01:00.885Z,40.50
2023-11-15T01:02:03.393Z,46.00
2023-11-15T01:03:06.807Z,69.33
2023-11-15T01:04:09.415Z,81.00
2023-11-15T01:05:12.709Z,86.50
2023-11-15T01:06:15.103Z,82.67
2023-11-15T01:07:18.249Z,77.50
2023-11-15T01:08:20.394Z,74.17
2023-11-15T01:09:24.971Z,72.67
2023-11-15T01:10:27.391Z,71.67
2023-11-15T01:11:30.564Z,70.67
2023-11-15T01:12:32.805Z,68.67
2023-11-15T01:13:36.601Z,64.50
2023-11-15T01:14:38.923Z,59.67
2023-11-15T01:15:43.642Z,57.83
2023-11-15T01:16:45.854Z,53.83
2023-11-15T01:17:49.096Z,44.50
2023-11-15T01:18:51.792Z,38.50
2023-11-15T01:19:55.035Z,36.00
2023-11-15T01:20:57.297Z,32.33
2023-11-15T01:22:00.501Z,26.83
2023-11-15T01:23:03.877Z,23.17
2023-11-15T01:24:08.270Z,20.50
2023-11-15T01:25:10.545Z,19.00
2023-11-15T01:26:13.739Z,18.50
2023-11-15T01:27:15.860Z,17.83
2023-11-15T01:28:19.031Z,17.00
2023-11-15T01:29:21.261Z,16.67
2023-11-15T01:30:25.069Z,15.83
2023-11-15T01:31:28.602Z,15.00
2023-11-15T01:32:32.530Z,14.17
2023-11-15T01:33:35.197Z,13.33
2023-11-15T01:34:38.493Z,13.00
2023-11-15T01:35:40.603Z,12.17
2023-11-15T01:36:43.722Z,11.17
2023-11-15T01:37:46.642Z,10.83
2023-11-15T01:38:49.807Z,10.00
2023-11-15T01:39:52.162Z,10.00
2023-11-15T01:40:55.369Z,10.83
2023-11-15T01:41:57.657Z,11.33
2023-11-15T01:43:01.010Z,12.00
2023-11-15T01:44:03.412Z,12.67
2023-11-15T01:45:07.531Z,13.00
2023-11-15T01:46:10.317Z,13.50
2023-11-15T01:47:15.732Z,14.00
2023-11-15T01:48:17.999Z,14.00
2023-11-15T01:49:23.892Z,14.00
2023-11-15T01:50:26.112Z,14.00
2023-11-15T01:51:29.277Z,13.83
2023-11-15T01:52:31.471Z,12.67
2023-11-15T01:53:34.755Z,11.17
2023-11-15T01:54:37.201Z,9.50
2023-11-15T01:55:40.732Z,8.33
2023-11-15T01:56:42.937Z,8.00
2023-11-15T01:57:46.097Z,8.00
2023-11-15T01:58:49.437Z,8.00
2023-11-15T01:59:52.055Z,8.00
2023-11-15T02:00:55.927Z,8.00
2023-11-15T02:01:58.184Z,8.00
2023-11-15T02:03:03.280Z,8.00
2023-11-15T02:04:05.742Z,8.00
2023-11-15T02:05:10.558Z,8.00
2023-11-15T02:06:13.096Z,8.00
2023-11-15T02:07:16.237Z,8.00
2023-11-15T02:08:18.459Z,8.00
2023-11-15T02:09:21.754Z,8.00
2023-11-15T02:10:24.193Z,8.00
2023-11-15T02:11:26.545Z,8.83
2023-11-15T02:12:29.746Z,9.00
2023-11-15T02:13:31.930Z,9.00
2023-11-15T02:14:35.118Z,9.50
2023-11-15T02:15:37.615Z,12.83
2023-11-15T02:16:45.919Z,20.33
2023-11-15T02:17:49.713Z,25.50
2023-11-15T02:18:54.365Z,31.17
2023-11-15T02:19:57.816Z,41.00
2023-11-15T02:21:00.989Z,39.83
2023-11-15T02:22:04.597Z,34.67
2023-11-15T02:23:07.953Z,32.50
2023-11-15T02:24:11.603Z,30.83
2023-11-15T02:25:15.158Z,29.00
2023-11-15T02:26:17.322Z,27.67
2023-11-15T02:27:20.461Z,26.67
2023-11-15T02:28:22.755Z,25.83
2023-11-15T02:29:26.238Z,24.83
2023-11-15T02:30:28.416Z,23.83
2023-11-15T02:31:33.148Z,23.00
2023-11-15T02:32:36.212Z,22.17
2023-11-15T02:33:38.516Z,21.67
2023-11-15T02:34:41.740Z,21.00
2023-11-15T02:35:43.946Z,20.33
2023-11-15T02:36:47.035Z,19.67
2023-11-15T02:37:49.235Z,19.00
2023-11-15T02:38:52.389Z,18.00
2023-11-15T02:39:55.917Z,17.33
2023-11-15T02:40:58.971Z,17.00
2023-11-15T02:42:01.204Z,18.00
2023-11-15T02:43:06.586Z,19.83
2023-11-15T02:44:11.450Z,19.50
2023-11-15T02:45:15.526Z,17.83
2023-11-15T02:46:18.891Z,15.83
2023-11-15T02:47:22.507Z,13.33
2023-11-15T02:48:24.868Z,11.33
2023-11-15T02:49:28.344Z,9.50
2023-11-15T02:50:31.313Z,8.33
2023-11-15T02:51:34.480Z,7.33
2023-11-15T02:52:37.141Z,6.50
2023-11-15T02:53:39.360Z,6.00
2023-11-15T02:54:42.429Z,5.50
2023-11-15T02:55:45.926Z,5.00
2023-11-15T02:56:49.052Z,5.00
2023-11-15T02:57:51.224Z,5.00
2023-11-15T02:58:54.504Z,5.00
2023-11-15T02:59:56.921Z,5.00
2023-11-15T03:01:00.164Z,5.83
2023-11-15T03:02:02.385Z,6.00
2023-11-15T03:03:05.838Z,6.00
2023-11-15T03:04:08.237Z,6.83
2023-11-15T03:05:11.898Z,7.00
2023-11-15T03:06:14.029Z,7.00
2023-11-15T03:07:18.446Z,7.00
2023-11-15T03:08:20.594Z,7.33
2023-11-15T03:09:23.728Z,8.00
2023-11-15T03:10:25.869Z,8.50
2023-11-15T03:11:30.544Z,9.67
2023-11-15T03:12:33.362Z,10.00
2023-11-15T03:13:36.586Z,10.67
2023-11-15T03:14:38.854Z,11.00
2023-11-15T03:15:42.171Z,11.00
2023-11-15T03:16:46.030Z,11.00
2023-11-15T03:17:49.297Z,11.00
2023-11-15T03:18:51.527Z,11.00
2023-11-15T03:19:54.778Z,11.00
2023-11-15T03:20:56.980Z,10.17
2023-11-15T03:22:00.100Z,10.00
2023-11-15T03:23:02.287Z,9.83
2023-11-15T03:24:06.060Z,9.00
2023-11-15T03:25:08.597Z,9.00
2023-11-15T03:26:11.692Z,9.00
2023-11-15T03:27:15.208Z,9.00
2023-11-15T03:28:18.335Z,9.00
2023-11-15T03:29:20.444Z,9.00
2023-11-15T03:30:23.558Z,8.67
2023-11-15T03:31:25.771Z,8.00
2023-11-15T03:32:30.119Z,8.00
2023-11-15T03:33:32.546Z,8.00
2023-11-15T03:34:37.690Z,8.00
2023-11-15T03:35:39.826Z,8.00
2023-11-15T03:36:44.057Z,8.00
2023-11-15T03:37:46.161Z,8.00
2023-11-15T03:38:48.315Z,8.00
2023-11-15T03:39:51.485Z,8.17
2023-11-15T03:40:54.391Z,9.00
2023-11-15T03:41:56.682Z,9.00
2023-11-15T03:43:01.167Z,9.00
2023-11-15T03:44:03.598Z,9.00
2023-11-15T03:45:07.557Z,9.00
2023-11-15T03:46:09.722Z,9.00
2023-11-15T03:47:12.874Z,9.00
2023-11-15T03:48:15.108Z,9.00
2023-11-15T03:49:18.382Z,8.83
2023-11-15T03:50:20.751Z,8.00
2023-11-15T03:51:24.175Z,8.00
2023-11-15T03:52:26.608Z,7.67
2023-11-15T03:53:31.608Z,7.00
2023-11-15T03:54:34.111Z,7.00
2023-11-15T03:55:37.295Z,7.00
2023-11-15T03:56:39.504Z,7.00
2023-11-15T03:57:44.044Z,7.00
2023-11-15T03:58:47.516Z,7.00
2023-11-15T03:59:51.222Z,7.00
2023-11-15T04:00:53.456Z,7.00
2023-11-15T04:01:57.851Z,6.00
2023-11-15T04:03:01.139Z,6.00
2023-11-15T04:04:04.660Z,6.00
2023-11-15T04:05:07.635Z,6.00
2023-11-15T04:06:11.220Z,6.00
2023-11-15T04:07:13.903Z,6.00
2023-11-15T04:08:16.287Z,6.00
2023-11-15T04:09:19.509Z,6.00
2023-11-15T04:10:22.551Z,5.00
2023-11-15T04:11:25.658Z,5.00
2023-11-15T04:12:27.892Z,5.00
2023-11-15T04:13:31.216Z,5.83
2023-11-15T04:14:36.360Z,6.00
2023-11-15T04:15:38.553Z,6.00
2023-11-15T04:16:41.859Z,6.00
2023-11-15T04:17:44.052Z,6.00
2023-11-15T04:18:47.459Z,6.83
2023-11-15T04:19:49.599Z,7.00
2023-11-15T04:20:52.713Z,8.00
2023-11-15T04:22:05.415Z,8.17
2023-11-15T04:23:15.637Z,9.00
2023-11-15T04:24:18.822Z,10.00
2023-11-15T04:25:21.961Z,10.50
2023-11-15T04:26:24.172Z,11.00
2023-11-15T04:27:29.895Z,11.00
2023-11-15T04:28:33.340Z,11.67
2023-11-15T04:29:38.854Z,12.17
2023-11-15T04:30:41.030Z,13.33
2023-11-15T04:31:44.175Z,15.83
2023-11-15T04:32:47.464Z,21.17
2023-11-15T04:33:50.659Z,24.17
2023-11-15T04:34:53.408Z,26.67
2023-11-15T04:35:55.594Z,31.83
2023-11-15T04:36:59.442Z,35.00
2023-11-15T04:38:04.604Z,36.17
2023-11-15T04:39:11.880Z,36.17
2023-11-15T04:40:14.427Z,41.17
2023-11-15T04:41:17.661Z,46.50
2023-11-15T04:42:21.378Z,49.67
2023-11-15T04:43:25.134Z,56.50
2023-11-15T04:44:28.769Z,66.00
2023-11-15T04:45:32.344Z,67.50
2023-11-15T04:46:36.287Z,70.83
2023-11-15T04:47:38.543Z,78.67
2023-11-15T04:48:41.719Z,84.00
2023-11-15T04:49:44.213Z,85.67
2023-11-15T04:50:47.384Z,84.50
2023-11-15T04:51:49.603Z,90.67
2023-11-15T04:52:54.727Z,96.33
2023-11-15T04:53:57.709Z,102.50
2023-11-15T04:55:00.902Z,111.67
2023-11-15T04:56:03.754Z,120.33
2023-11-15T04:57:07.278Z,128.33
2023-11-15T04:58:09.531Z,134.83
2023-11-15T04:59:11.669Z,138.33
2023-11-15T05:00:15.749Z,135.83
2023-11-15T05:01:19.387Z,129.67
2023-11-15T05:02:22.490Z,129.50
2023-11-15T05:03:24.961Z,137.17
2023-11-15T05:04:27.794Z,135.83
2023-11-15T05:05:31.113Z,135.00
2023-11-15T05:06:33.321Z,140.00
2023-11-15T05:07:37.955Z,148.17
2023-11-15T05:08:41.103Z,159.50
2023-11-15T05:09:43.297Z,164.67
2023-11-15T05:10:46.604Z,160.50
2023-11-15T05:11:48.748Z,159.17
2023-11-15T05:12:52.247Z,168.83
2023-11-15T05:13:54.409Z,170.50
2023-11-15T05:14:57.514Z,179.17
2023-11-15T05:15:59.898Z,172.83
2023-11-15T05:17:04.864Z,170.00
2023-11-15T05:18:07.133Z,181.50
2023-11-15T05:19:10.523Z,191.17
2023-11-15T05:20:12.966Z,197.17
2023-11-15T05:21:16.146Z,191.67
2023-11-15T05:22:18.348Z,189.50
2023-11-15T05:23:20.727Z,191.50
2023-11-15T05:24:23.805Z,190.50
2023-11-15T05:25:26.086Z,187.67
2023-11-15T05:26:30.288Z,185.67
2023-11-15T05:27:32.520Z,190.67
2023-11-15T05:28:36.188Z,207.17
2023-11-15T05:29:38.871Z,205.83
2023-11-15T05:30:42.456Z,216.00
2023-11-15T05:31:44.680Z,206.33
2023-11-15T05:32:49.319Z,203.50
2023-11-15T05:33:51.780Z,202.17
2023-11-15T05:34:54.895Z,202.33
2023-11-15T05:35:57.748Z,202.50
2023-11-15T05:37:00.886Z,201.50
2023-11-15T05:38:03.115Z,201.33
2023-11-15T05:39:07.654Z,211.50
2023-11-15T05:40:14.060Z,216.00
2023-11-15T05:41:17.272Z,212.00
2023-11-15T05:42:19.423Z,204.83
2023-11-15T05:43:22.602Z,197.67
2023-11-15T05:44:24.716Z,195.83
2023-11-15T05:45:27.809Z,193.17
2023-11-15T05:46:30.032Z,188.17
2023-11-15T05:47:33.357Z,188.83
2023-11-15T05:48:37.321Z,187.00
2023-11-15T05:49:40.132Z,176.00
2023-11-15T05:50:43.339Z,166.17
2023-11-15T05:51:45.614Z,171.33
2023-11-15T05:52:48.809Z,169.33
2023-11-15T05:53:51.092Z,165.67
2023-11-15T05:54:54.263Z,167.50
2023-11-15T05:55:56.455Z,169.33
2023-11-15T05:56:59.997Z,173.67
2023-11-15T05:58:02.221Z,202.83
2023-11-15T05:59:04.693Z,195.50
2023-11-15T06:00:19.563Z,191.00
2023-11-15T06:01:22.055Z,187.83
2023-11-15T06:02:25.208Z,183.33
2023-11-15T06:03:27.511Z,176.83
2023-11-15T06:04:32.037Z,166.83
2023-11-15T06:05:34.311Z,167.83
2023-11-15T06:06:37.410Z,169.00
2023-11-15T06:07:39.657Z,167.50
2023-11-15T06:08:41.902Z,161.00
2023-11-15T06:09:46.482Z,153.17
2023-11-15T06:10:49.643Z,147.17
2023-11-15T06:11:52.969Z,143.00
2023-11-15T06:12:56.229Z,142.83
2023-11-15T06:13:59.501Z,145.67
2023-11-15T06:15:02.128Z,148.83
2023-11-15T06:16:05.960Z,154.33
2023-11-15T06:17:08.938Z,185.00
2023-11-15T06:18:12.425Z,199.83
2023-11-15T06:19:14.671Z,194.83
2023-11-15T06:20:19.820Z,190.50
2023-11-15T06:21:22.132Z,185.67
2023-11-15T06:22:25.173Z,195.83
2023-11-15T06:23:28.377Z,206.50
2023-11-15T06:24:30.563Z,197.50
2023-11-15T06:25:34.194Z,195.00
2023-11-15T06:26:36.998Z,200.00
2023-11-15T06:27:40.639Z,222.17
2023-11-15T06:28:42.845Z,209.50
2023-11-15T06:29:48.444Z,207.33
2023-11-15T06:30:51.108Z,205.67
2023-11-15T06:31:55.900Z,205.17
2023-11-15T06:32:58.190Z,206.00
2023-11-15T06:34:00.552Z,207.17
2023-11-15T06:35:04.051Z,210.00
2023-11-15T06:36:09.499Z,209.00
2023-11-15T06:37:13.648Z,202.33
2023-11-15T06:38:15.757Z,189.17
2023-11-15T06:39:22.288Z,186.00
2023-11-15T06:40:24.738Z,185.17
2023-11-15T06:41:27.877Z,182.83
2023-11-15T06:42:30.056Z,180.50
2023-11-15T06:43:33.237Z,180.50
2023-11-15T06:44:35.539Z,180.67
2023-11-15T06:45:38.978Z,179.50
2023-11-15T06:46:41.176Z,175.83
2023-11-15T06:47:44.691Z,170.83
2023-11-15T06:48:48.389Z,161.00
2023-11-15T06:49:51.644Z,155.33
2023-11-15T06:50:53.911Z,150.67
2023-11-15T06:51:58.680Z,142.00
2023-11-15T06:53:00.901Z,152.33
2023-11-15T06:54:04.239Z,159.17
2023-11-15T06:55:07.802Z,126.33
2023-11-15T06:56:11.040Z,118.00
2023-11-15T06:57:13.279Z,114.00
2023-11-15T06:58:18.405Z,116.50
2023-11-15T06:59:21.120Z,105.33
2023-11-15T07:00:26.887Z,85.83
2023-11-15T07:01:29.216Z,80.50
2023-11-15T07:02:32.541Z,86.33
2023-11-15T07:03:35.080Z,93.00
2023-11-15T07:04:38.280Z,97.67
2023-11-15T07:05:41.869Z,101.00
2023-11-15T07:06:47.235Z,95.00
2023-11-15T07:07:51.177Z,86.50
2023-11-15T07:08:54.397Z,89.00
2023-11-15T07:09:56.536Z,108.67
2023-11-15T07:11:01.227Z,132.83
2023-11-15T07:12:05.533Z,111.33
2023-11-15T07:13:10.118Z,73.00
2023-11-15T07:14:12.312Z,48.50
2023-11-15T07:15:17.955Z,52.67
2023-11-15T07:16:21.444Z,43.17
2023-11-15T07:17:25.142Z,66.67
2023-11-15T07:18:29.028Z,106.17
2023-11-15T07:19:33.979Z,110.33
2023-11-15T07:20:38.755Z,108.17
2023-11-15T07:21:42.773Z,102.17
2023-11-15T07:22:45.887Z,93.50
2023-11-15T07:23:51.983Z,75.33
2023-11-15T07:24:54.851Z,72.17
2023-11-15T07:25:58.111Z,61.00
2023-11-15T07:27:00.559Z,68.17
2023-11-15T07:28:05.220Z,70.17
2023-11-15T07:29:07.925Z,102.00
2023-11-15T07:30:15.311Z,113.50
2023-11-15T07:31:20.140Z,115.33
2023-11-15T07:32:23.574Z,108.67
2023-11-15T07:33:25.856Z,102.00
2023-11-15T07:34:29.393Z,66.50
2023-11-15T07:35:31.826Z,50.83
2023-11-15T07:36:35.491Z,42.67
2023-11-15T07:37:38.500Z,37.50
2023-11-15T07:38:41.851Z,35.17
2023-11-15T07:39:45.404Z,35.17
2023-11-15T07:40:49.933Z,34.83
2023-11-15T07:41:52.424Z,30.33
2023-11-15T07:42:55.645Z,31.00
2023-11-15T07:43:57.859Z,31.67
2023-11-15T07:45:03.204Z,29.33
2023-11-15T07:46:11.114Z,25.17
2023-11-15T07:47:15.035Z,24.83
2023-11-15T07:48:18.177Z,23.17
2023-11-15T07:49:21.671Z,29.33
2023-11-15T07:50:24.752Z,44.67
2023-11-15T07:51:27.008Z,46.83
2023-11-15T07:52:30.224Z,41.67
2023-11-15T07:53:33.613Z,31.83
2023-11-15T07:54:36.749Z,28.67
2023-11-15T07:55:40.317Z,24.00
2023-11-15T07:56:43.696Z,30.50
2023-11-15T07:57:46.229Z,33.00
2023-11-15T07:58:50.789Z,69.83
2023-11-15T07:59:54.812Z,71.00
2023-11-15T08:00:57.567Z,64.00
2023-11-15T08:02:01.331Z,57.50
2023-11-15T08:03:05.621Z,35.33
2023-11-15T08:04:09.260Z,18.00
2023-11-15T08:05:11.718Z,13.83
2023-11-15T08:06:15.495Z,19.33
2023-11-15T08:07:18.257Z,17.00
2023-11-15T08:08:21.362Z,15.00
2023-11-15T08:09:27.808Z,12.50
2023-11-15T08:10:32.479Z,11.00
2023-11-15T08:11:36.251Z,8.33
2023-11-15T08:12:39.427Z,7.17
2023-11-15T08:13:57.052Z,6.50
2023-11-15T08:15:02.407Z,6.83
2023-11-15T08:16:05.676Z,7.50
2023-11-15T08:17:08.829Z,8.00
2023-11-15T08:18:11.145Z,8.00
2023-11-15T08:19:14.535Z,8.00
2023-11-15T08:20:18.843Z,8.50
2023-11-15T08:21:22.542Z,9.00
2023-11-15T08:22:24.770Z,9.00
2023-11-15T08:23:28.172Z,9.00
2023-11-15T08:24:32.742Z,9.00
2023-11-15T08:25:35.917Z,9.67
2023-11-15T08:26:41.056Z,10.00
2023-11-15T08:27:44.592Z,10.00
2023-11-15T08:28:48.296Z,10.00
2023-11-15T08:29:51.513Z,10.00
2023-11-15T08:30:54.061Z,10.00
2023-11-15T08:31:58.741Z,10.00
2023-11-15T08:33:01.222Z,10.00
2023-11-15T08:34:03.762Z,10.83
2023-11-15T08:35:07.922Z,12.50
2023-11-15T08:36:11.969Z,17.00
2023-11-15T08:37:15.083Z,28.67
2023-11-15T08:38:19.912Z,28.17
2023-11-15T08:39:24.097Z,26.67
2023-11-15T08:40:29.173Z,26.00
2023-11-15T08:41:32.918Z,25.33
2023-11-15T08:42:36.473Z,25.00
2023-11-15T08:43:41.534Z,24.17
2023-11-15T08:44:52.228Z,23.50
2023-11-15T08:45:58.814Z,23.00
2023-11-15T08:47:04.575Z,23.50
2023-11-15T08:48:26.133Z,25.17
2023-11-15T08:52:05.503Z,18.67
2023-11-15T08:53:07.598Z,29.00
2023-11-15T08:54:11.474Z,51.33
2023-11-15T08:55:13.885Z,44.33
2023-11-15T08:56:17.154Z,54.50
2023-11-15T08:57:19.776Z,63.33
2023-11-15T08:58:28.566Z,128.33
2023-11-15T08:59:30.762Z,211.00
2023-11-15T09:00:33.997Z,71.83
2023-11-15T09:01:36.128Z,75.33
2023-11-15T09:02:39.390Z,114.33
2023-11-15T09:03:42.422Z,128.33
2023-11-15T09:04:47.099Z,145.00
2023-11-15T09:05:50.385Z,75.17
2023-11-15T09:06:54.015Z,54.50
2023-11-15T09:07:57.553Z,51.50
2023-11-15T09:09:02.151Z,80.00
2023-11-15T09:10:05.415Z,91.17
2023-11-15T09:11:09.311Z,76.50
2023-11-15T09:12:29.196Z,83.00
2023-11-15T09:13:34.232Z,106.17
2023-11-15T09:14:37.420Z,76.83
2023-11-15T09:15:42.475Z,79.17
2023-11-15T09:16:46.115Z,81.00
2023-11-15T09:17:51.789Z,73.50
2023-11-15T09:18:56.766Z,61.33
2023-11-15T09:20:00.715Z,66.00
2023-11-15T09:21:04.619Z,80.00
2023-11-15T09:22:09.525Z,96.33
2023-11-15T09:23:22.405Z,136.50
2023-11-15T09:24:31.905Z,100.83
2023-11-15T09:25:36.745Z,112.67
2023-11-15T09:26:42.244Z,238.83
2023-11-15T09:27:44.759Z,118.17
2023-11-15T09:28:49.967Z,89.17
2023-11-15T09:29:53.112Z,86.33
2023-11-15T09:30:57.327Z,82.67
2023-11-15T09:32:01.452Z,114.17
2023-11-15T09:33:06.839Z,437.50
2023-11-15T09:34:09.440Z,400.83
2023-11-15T09:35:14.909Z,128.00
2023-11-15T09:36:17.310Z,102.17
2023-11-15T09:37:20.566Z,11.00
2023-11-15T09:38:24.246Z,5.17
2023-11-15T09:39:30.462Z,6.83
2023-11-15T09:40:33.464Z,8.00
2023-11-15T09:41:36.748Z,7.83
2023-11-15T09:42:43.401Z,6.83
2023-11-15T09:43:52.562Z,9.00
2023-11-15T09:44:54.759Z,8.67
2023-11-15T09:46:00.654Z,7.00
2023-11-15T09:47:13.340Z,9.67
2023-11-15T09:48:17.388Z,137.33
2023-11-15T09:49:21.998Z,355.17
2023-11-15T09:50:27.940Z,377.67
2023-11-15T09:51:35.369Z,377.17
2023-11-15T09:52:40.145Z,394.67
2023-11-15T09:53:45.694Z,264.67
2023-11-15T09:54:53.228Z,95.00
2023-11-15T09:56:00.554Z,112.50
2023-11-15T09:57:02.807Z,158.83
2023-11-15T09:58:06.213Z,183.17
2023-11-15T10:00:23.008Z,318.00
2023-11-15T10:01:27.677Z,283.33
2023-11-15T10:02:32.538Z,239.67
2023-11-15T10:03:40.875Z,294.17
2023-11-15T10:04:44.126Z,224.83
2023-11-15T10:05:59.010Z,117.83
2023-11-15T10:07:06.217Z,136.50
2023-11-15T10:08:12.073Z,184.00
2023-11-15T10:09:16.710Z,153.67
2023-11-15T10:10:20.264Z,75.83
2023-11-15T10:11:22.976Z,182.67
2023-11-15T10:12:37.236Z,198.00
2023-11-15T10:13:40.736Z,182.67
2023-11-15T10:14:54.786Z,148.67
2023-11-15T10:15:57.370Z,83.33
2023-11-15T10:17:02.166Z,92.67
2023-11-15T10:18:05.799Z,51.00
2023-11-15T10:19:28.489Z,52.00
2023-11-15T10:20:31.783Z,90.00
2023-11-15T10:21:35.060Z,52.00
2023-11-15T10:22:46.937Z,17.00
2023-11-15T10:23:50.228Z,25.67
2023-11-15T10:25:07.316Z,66.67
2023-11-15T10:26:10.692Z,68.00
2023-11-15T10:27:16.292Z,24.17
2023-11-15T10:28:22.314Z,16.83
2023-11-15T10:29:27.430Z,77.50
2023-11-15T10:30:29.787Z,100.83
2023-11-15T10:31:33.036Z,60.83
2023-11-15T10:32:35.402Z,73.33
2023-11-15T10:33:39.725Z,96.83
2023-11-15T10:34:52.894Z,98.17
2023-11-15T10:35:57.111Z,93.00
2023-11-15T10:37:04.248Z,95.00
2023-11-15T10:38:14.243Z,163.50
2023-11-15T10:39:16.789Z,159.17
2023-11-15T10:40:25.654Z,398.00
2023-11-15T10:41:32.074Z,423.50
2023-11-15T10:42:35.832Z,395.17
2023-11-15T10:43:38.994Z,450.00
2023-11-15T10:44:43.146Z,439.67
2023-11-15T10:45:46.982Z,424.83
2023-11-15T10:46:51.556Z,421.33
2023-11-15T10:47:57.960Z,382.83
2023-11-15T10:49:02.775Z,266.33
2023-11-15T10:50:14.316Z,237.50
2023-11-15T10:51:22.916Z,152.50
2023-11-15T10:52:26.072Z,177.67
2023-11-15T10:53:31.276Z,157.33
2023-11-15T10:54:34.070Z,126.67
2023-11-15T10:55:40.311Z,89.17
2023-11-15T10:56:42.860Z,54.67
2023-11-15T10:57:47.956Z,48.17
2023-11-15T10:58:51.469Z,207.67
2023-11-15T10:59:54.836Z,256.00
2023-11-15T11:00:57.181Z,140.83
2023-11-15T11:02:01.849Z,68.67
2023-11-15T11:03:05.352Z,79.67
2023-11-15T11:04:12.721Z,122.83
2023-11-15T11:05:24.891Z,72.67
2023-11-15T11:06:30.989Z,48.83
2023-11-15T11:07:41.527Z,68.00
2023-11-15T11:08:55.139Z,75.83
2023-11-15T11:10:03.414Z,63.17
2023-11-15T11:11:21.845Z,53.00
2023-11-15T11:12:24.115Z,89.83
2023-11-15T11:13:27.319Z,104.50
2023-11-15T11:14:29.485Z,96.67
2023-11-15T11:15:33.991Z,57.50
2023-11-15T11:16:37.451Z,33.83
2023-11-15T11:17:43.644Z,21.33
2023-11-15T11:19:18.086Z,12.33
2023-11-15T11:20:27.743Z,7.33
2023-11-15T11:22:08.997Z,11.50
2023-11-15T11:23:12.834Z,6.83
2023-11-15T11:24:16.848Z,4.83
2023-11-15T11:25:22.736Z,3.17
2023-11-15T11:26:38.348Z,4.00
2023-11-15T11:27:43.744Z,11.83
2023-11-15T11:29:04.178Z,16.00
2023-11-15T11:30:21.937Z,18.67
2023-11-15T11:31:27.183Z,19.17
2023-11-15T11:32:33.123Z,15.17
2023-11-15T11:33:36.731Z,12.33
2023-11-15T11:34:39.036Z,9.00
2023-11-15T11:35:42.374Z,6.50
2023-11-15T11:36:46.693Z,7.17
2023-11-15T11:37:53.654Z,7.17
2023-11-15T11:38:57.593Z,9.83
2023-11-15T11:40:01.458Z,13.00
2023-11-15T11:41:06.059Z,17.00
2023-11-15T11:42:25.393Z,15.17
2023-11-15T11:43:31.553Z,14.67
2023-11-15T11:44:52.209Z,15.00
2023-11-15T11:45:55.153Z,25.00
2023-11-15T11:47:04.696Z,27.67
2023-11-15T11:48:07.114Z,30.50
2023-11-15T11:49:10.270Z,72.67
2023-11-15T11:50:13.045Z,48.67
2023-11-15T11:51:16.360Z,40.17
2023-11-15T11:52:20.057Z,35.33
2023-11-15T11:53:22.398Z,26.50
2023-11-15T11:54:25.799Z,16.67
2023-11-15T11:55:32.669Z,11.00
2023-11-15T11:56:35.738Z,12.00
2023-11-15T11:57:39.713Z,12.83
2023-11-15T11:58:44.557Z,13.00
2023-11-15T11:59:59.477Z,13.33
2023-11-15T12:01:04.127Z,14.83
2023-11-15T12:02:07.772Z,15.00
2023-11-15T12:03:17.857Z,15.33
2023-11-15T12:04:22.013Z,14.33
2023-11-15T12:05:26.023Z,13.00
2023-11-15T12:06:29.255Z,13.00
2023-11-15T12:07:31.669Z,13.00
2023-11-15T12:08:35.353Z,13.50
2023-11-15T12:09:42.603Z,14.00
2023-11-15T12:10:45.193Z,14.50
2023-11-15T12:11:49.006Z,15.00
2023-11-15T12:12:57.279Z,16.00
2023-11-15T12:14:00.519Z,38.50
2023-11-15T12:15:02.820Z,36.50
2023-11-15T12:16:05.883Z,33.17
2023-11-15T12:17:09.176Z,32.67
2023-11-15T12:18:14.273Z,45.17
2023-11-15T12:19:20.388Z,44.67
2023-11-15T12:20:29.633Z,40.17
2023-11-15T12:21:33.245Z,38.33
2023-11-15T12:22:36.868Z,37.17
2023-11-15T12:23:41.512Z,35.67
2023-11-15T12:24:47.156Z,26.17
2023-11-15T12:25:53.638Z,15.83
2023-11-15T12:26:59.522Z,12.83
2023-11-15T12:28:03.216Z,10.67
2023-11-15T12:29:17.513Z,10.50
2023-11-15T12:30:19.817Z,12.50
2023-11-15T12:31:24.681Z,14.83
2023-11-15T12:32:26.914Z,19.67
2023-11-15T12:33:30.640Z,14.83
2023-11-15T12:34:33.163Z,10.17
2023-11-15T12:35:36.744Z,12.33
2023-11-15T12:36:39.592Z,100.83
2023-11-15T12:37:42.961Z,200.67
2023-11-15T12:38:55.436Z,122.17
2023-11-15T12:39:58.605Z,75.50
2023-11-15T12:41:07.381Z,69.50
2023-11-15T12:42:11.180Z,61.00
2023-11-15T12:43:16.054Z,49.83
2023-11-15T12:44:18.340Z,36.17
2023-11-15T12:45:31.131Z,25.17
2023-11-15T12:46:33.374Z,21.00
2023-11-15T12:47:36.638Z,80.33
2023-11-15T12:48:41.704Z,116.00
2023-11-15T12:49:44.948Z,70.50
2023-11-15T12:50:49.068Z,39.17
2023-11-15T12:51:53.045Z,121.67
2023-11-15T12:52:57.069Z,460.33
2023-11-15T12:54:02.904Z,490.33
2023-11-15T12:55:07.128Z,493.67
2023-11-15T12:56:16.260Z,476.50
2023-11-15T12:57:20.144Z,331.00
2023-11-15T12:58:46.912Z,263.17
2023-11-15T12:59:52.077Z,149.83
2023-11-15T13:00:58.717Z,162.33
2023-11-15T13:02:02.187Z,204.33
2023-11-15T13:03:18.407Z,280.67
2023-11-15T13:04:26.169Z,426.00
2023-11-15T13:05:29.369Z,345.33
2023-11-15T13:06:36.845Z,265.17
2023-11-15T13:07:40.339Z,170.00
2023-11-15T13:08:44.536Z,158.17
2023-11-15T13:09:48.109Z,408.00
2023-11-15T13:10:50.340Z,452.67
2023-11-15T13:11:53.697Z,369.17
2023-11-15T13:12:58.528Z,296.00
2023-11-15T13:14:03.662Z,292.00
2023-11-15T13:15:12.194Z,173.17
2023-11-15T13:16:16.187Z,235.00
2023-11-15T13:17:18.721Z,248.00
2023-11-15T13:18:22.192Z,250.67
2023-11-15T13:19:26.232Z,199.33
2023-11-15T13:20:29.488Z,270.17
2023-11-15T13:21:31.707Z,322.50
2023-11-15T13:22:35.495Z,404.83
2023-11-15T13:23:37.922Z,453.00
2023-11-15T13:24:42.808Z,353.00
2023-11-15T13:25:46.129Z,286.83
2023-11-15T13:26:51.204Z,243.50
2023-11-15T13:27:54.933Z,281.50
2023-11-15T13:28:57.387Z,215.00
2023-11-15T13:30:02.307Z,262.50
2023-11-15T13:31:08.605Z,331.50
2023-11-15T13:32:12.333Z,172.17
2023-11-15T13:33:15.277Z,135.83
2023-11-15T13:34:20.604Z,85.33
2023-11-15T13:35:23.080Z,76.67
2023-11-15T13:36:28.764Z,122.50
2023-11-15T13:37:31.475Z,247.83
2023-11-15T13:38:35.726Z,344.83
2023-11-15T13:39:39.017Z,354.83
2023-11-15T13:40:43.739Z,412.67
2023-11-15T13:41:46.180Z,379.17
2023-11-15T13:42:50.612Z,399.00
2023-11-15T13:43:53.998Z,472.83
2023-11-15T13:44:58.822Z,409.50
2023-11-15T13:46:03.347Z,290.33
2023-11-15T13:47:08.169Z,214.67